Ostseküste, Lübeck, Kiel, Schwerin

2020/03/28 11:20 EDHL 281120Z VRB04KT CAVOK 12/M02 Q1022
2020/03/28 12:27 TAF TAF EDHL 281100Z 2812/2821 34006KT CAVOK
2010/02/22 14:20 METAR EDHL 221420Z 15004KT 110V180 9999 FEW039 SCT120 05/02 Q0990 RMK X

2020/03/28 11:20 EDHK 281120Z 35007KT 260V030 CAVOK 08/02 Q1023
2020/03/28 12:27 TAF EDHK 281100Z 2812/2818 35008KT 9999 FEW035
2013/08/11 06:39 TAF EDHK 110633Z 1106/1118 24005KT 9999 SCT030 BECMG 1106/1109 25010KT TEMPO 1106/1118 27015G25KT 4500 SHRA BKN012CB

2019/03/31 14:50 EDOP 311450Z 35010KT 310V020 CAVOK 09/M06 Q1025
2011/02/23 00:27 TAF EDOP 232315Z 2400/2412 CNL
2019/03/31 16:15 TAF AMD EDOP 311609Z 3116/0112 CNL

2020/03/28 METAR von: , derzeit nicht verfübar.
2020/03/28 TAF (short) von: , derzeit nicht verfübar.
2020/03/28 TAF (long) von: , derzeit nicht verfübar.